Time;durP1;ratioP1;P1;durP2;ratioP2;P2;SDS_P1;SDS_P2;PMS_P1;PMS_P2;Temp;Humidity;BMP_temperature;BMP_pressure;BME280_temperature;BME280_humidity;BME280_pressure;Samples;Min_cycle;Max_cycle;Signal;HPM_P1;HPM_P2
2022/11/05 00:09:32;;;;;;;6.38;1.60;;;4.40;99.90;;;;;;4997036;28;20089;-77
2022/11/05 00:17:51;;;;;;;5.20;1.40;;;4.50;99.90;;;;;;4993501;28;20033;-77
2022/11/05 00:20:17;;;;;;;6.03;1.75;;;4.70;1.00;;;;;;4994699;28;20031;-77
2022/11/05 00:25:28;;;;;;;3.90;0.95;;;4.40;99.90;;;;;;5015071;28;20084;-77
2022/11/05 00:28:01;;;;;;;4.50;0.90;;;4.70;1.00;;;;;;5007447;28;20396;-77
2022/11/05 00:30:28;;;;;;;5.63;1.15;;;4.50;1.00;;;;;;4995431;28;20449;-77
2022/11/05 00:32:59;;;;;;;6.88;1.00;;;4.40;1.00;;;;;;4995543;28;20030;-77
2022/11/05 00:35:49;;;;;;;4.55;1.02;;;4.80;1.00;;;;;;4995470;28;20385;-77
2022/11/05 00:38:14;;;;;;;6.63;1.00;;;4.60;1.00;;;;;;4995650;28;20066;-77
2022/11/05 00:40:40;;;;;;;4.72;0.90;;;4.80;1.00;;;;;;4995379;28;20088;-77
2022/11/05 00:45:50;;;;;;;4.97;0.90;;;4.60;1.00;;;;;;5003722;28;20032;-77
2022/11/05 00:50:59;;;;;;;4.72;0.90;;;4.10;1.00;;;;;;5014628;28;20080;-77
2022/11/05 00:53:25;;;;;;;2.63;0.90;;;4.10;1.00;;;;;;5014510;28;20034;-77
2022/11/05 00:55:50;;;;;;;4.13;0.85;;;4.00;1.00;;;;;;5014663;28;20473;-77
2022/11/05 00:58:19;;;;;;;3.50;1.00;;;4.00;1.00;;;;;;5014599;28;20025;-77
2022/11/05 01:00:50;;;;;;;3.50;1.00;;;3.90;1.00;;;;;;5014692;28;20097;-77
2022/11/05 01:03:18;;;;;;;6.15;1.40;;;3.90;1.00;;;;;;5014680;28;20068;-77
2022/11/05 01:05:47;;;;;;;2.08;0.82;;;3.90;1.00;;;;;;5014544;28;20026;-77
2022/11/05 01:08:14;;;;;;;4.53;1.00;;;3.90;1.00;;;;;;4995288;28;20030;-77
2022/11/05 01:10:45;;;;;;;4.50;1.23;;;3.80;1.00;;;;;;4951311;28;1257664;-77
2022/11/05 01:13:11;;;;;;;6.13;1.30;;;3.90;1.00;;;;;;4995939;28;20049;-77
2022/11/05 01:15:37;;;;;;;5.70;1.13;;;3.90;1.00;;;;;;4995905;28;20018;-77
2022/11/05 01:18:03;;;;;;;4.97;0.93;;;3.80;1.00;;;;;;4995920;28;20053;-77
2022/11/05 01:20:30;;;;;;;3.40;0.88;;;3.90;1.00;;;;;;4995751;28;20105;-77
2022/11/05 01:22:56;;;;;;;2.40;1.08;;;4.10;1.00;;;;;;4995845;28;20027;-76
2022/11/05 01:25:21;;;;;;;8.02;1.30;;;4.20;1.00;;;;;;4995644;28;20093;-77
2022/11/05 01:27:47;;;;;;;3.42;0.88;;;4.00;1.00;;;;;;4995676;28;20481;-77
2022/11/05 01:30:13;;;;;;;3.55;1.10;;;4.00;1.00;;;;;;4995680;28;20106;-77
2022/11/05 01:32:38;;;;;;;4.10;1.17;;;4.10;1.00;;;;;;4995700;28;20038;-77
2022/11/05 01:35:06;;;;;;;5.38;1.50;;;4.10;1.00;;;;;;4995918;28;20026;-77
2022/11/05 01:37:34;;;;;;;4.10;1.30;;;4.20;1.00;;;;;;4995812;28;20065;-77
2022/11/05 01:39:59;;;;;;;2.70;1.00;;;4.20;1.00;;;;;;4995861;28;20030;-77
2022/11/05 01:42:27;;;;;;;6.20;1.13;;;4.10;1.00;;;;;;4995503;28;20105;-77
2022/11/05 01:44:58;;;;;;;4.07;0.90;;;4.20;1.00;;;;;;4995525;28;20022;-77
2022/11/05 01:47:30;;;;;;;6.95;0.90;;;4.30;1.00;;;;;;4995128;28;20022;-77
2022/11/05 01:50:01;;;;;;;9.40;1.48;;;4.70;1.00;;;;;;4995455;28;20023;-77
2022/11/05 01:52:29;;;;;;;7.50;1.10;;;5.40;1.00;;;;;;4995145;28;20031;-77
2022/11/05 01:54:55;;;;;;;5.53;1.20;;;5.60;21.50;;;;;;4995262;28;20022;-77
2022/11/05 01:57:21;;;;;;;6.50;1.20;;;5.80;72.10;;;;;;4995118;28;20481;-78
2022/11/05 01:59:51;;;;;;;4.57;1.10;;;5.90;94.00;;;;;;4995104;28;20049;-77
2022/11/05 02:02:17;;;;;;;;;;;6.00;98.90;;;;;;4995721;28;20015;-77
2022/11/05 02:04:59;;;;;;;2.63;0.75;;;6.00;99.90;;;;;;4995182;28;20287;-77
2022/11/05 02:07:26;;;;;;;3.60;0.63;;;6.40;99.90;;;;;;4994920;28;20052;-77
2022/11/05 02:10:04;;;;;;;7.97;1.25;;;6.50;99.90;;;;;;4995160;28;20648;-77
2022/11/05 02:12:33;;;;;;;5.35;1.15;;;6.70;99.90;;;;;;4994457;28;20057;-77
2022/11/05 02:14:59;;;;;;;4.35;1.27;;;6.70;99.90;;;;;;4994738;28;20066;-77
2022/11/05 02:17:33;;;;;;;3.33;1.10;;;6.70;99.90;;;;;;4994877;28;20058;-77
2022/11/05 02:20:10;;;;;;;4.50;1.52;;;6.80;99.90;;;;;;4994621;28;20042;-77
2022/11/05 02:22:54;;;;;;;4.10;0.90;;;6.80;99.90;;;;;;4994492;28;20027;-77
2022/11/05 02:25:38;;;;;;;3.83;0.90;;;6.80;99.90;;;;;;4994569;28;20435;-77
2022/11/05 02:28:31;;;;;;;3.13;0.93;;;6.90;99.90;;;;;;5003356;28;20113;-77
2022/11/05 02:31:08;;;;;;;3.22;1.00;;;7.00;99.90;;;;;;4994403;28;20122;-77
2022/11/05 02:33:55;;;;;;;6.78;1.55;;;6.90;99.90;;;;;;4994481;28;20446;-77
2022/11/05 02:36:46;;;;;;;4.88;1.63;;;6.80;99.90;;;;;;4994872;28;20022;-78
2022/11/05 02:39:39;;;;;;;7.78;2.33;;;6.70;99.90;;;;;;5001637;28;20030;-77
2022/11/05 02:42:25;;;;;;;5.55;2.20;;;6.60;99.90;;;;;;4994619;28;20484;-77
2022/11/05 02:45:16;;;;;;;6.53;2.00;;;6.60;99.90;;;;;;4994509;28;20037;-77
2022/11/05 02:47:49;;;;;;;5.20;1.50;;;6.70;99.90;;;;;;4994356;28;20026;-77
2022/11/05 02:50:23;;;;;;;5.65;1.40;;;6.70;99.90;;;;;;4994283;28;20420;-77
2022/11/05 02:53:15;;;;;;;4.28;1.40;;;6.80;99.90;;;;;;4994215;28;20039;-77
2022/11/05 02:56:01;;;;;;;3.33;1.08;;;6.80;99.90;;;;;;5002512;28;20049;-77
2022/11/05 02:58:27;;;;;;;4.82;1.30;;;6.70;99.90;;;;;;5014056;28;20036;-77
2022/11/05 03:00:57;;;;;;;6.97;1.38;;;6.70;99.90;;;;;;5013780;28;20388;-78
2022/11/05 03:03:47;;;;;;;3.58;1.80;;;6.70;99.90;;;;;;5014186;28;20021;-78
2022/11/05 03:06:22;;;;;;;3.33;1.50;;;6.80;99.90;;;;;;5013995;28;20030;-78
2022/11/05 03:09:25;;;;;;;5.28;1.48;;;6.80;99.90;;;;;;5002935;28;20025;-77
2022/11/05 03:11:53;;;;;;;4.25;1.58;;;6.70;99.90;;;;;;4993545;28;20412;-78
2022/11/05 03:14:49;;;;;;;7.40;1.48;;;6.60;99.90;;;;;;4994052;28;20037;-77
2022/11/05 03:17:15;;;;;;;5.22;1.50;;;6.70;99.90;;;;;;4990576;28;20034;-78
2022/11/05 03:20:07;;;;;;;2.97;1.70;;;6.40;99.90;;;;;;5000739;28;20022;-78
2022/11/05 03:22:37;;;;;;;5.40;1.60;;;6.20;99.90;;;;;;5013412;28;20025;-77
2022/11/05 03:25:08;;;;;;;;;;;6.20;99.90;;;;;;5014145;28;20101;-77
2022/11/05 03:27:38;;;;;;;6.40;1.00;;;6.30;99.90;;;;;;5014008;28;19909;-77
2022/11/05 03:30:07;;;;;;;3.38;1.02;;;6.40;1.00;;;;;;5001438;28;20477;-78
2022/11/05 03:32:37;;;;;;;5.93;1.20;;;6.50;99.90;;;;;;4993746;28;20576;-77
2022/11/05 03:35:17;;;;;;;3.30;1.42;;;6.60;99.90;;;;;;4994139;28;20032;-78
2022/11/05 03:37:45;;;;;;;3.78;1.20;;;6.70;99.90;;;;;;4994248;28;20477;-78
2022/11/05 03:40:13;;;;;;;3.55;1.20;;;6.70;99.90;;;;;;5012891;28;20026;-78
2022/11/05 03:42:43;;;;;;;3.22;1.35;;;6.80;99.90;;;;;;5017448;28;20083;-78
2022/11/05 03:45:15;;;;;;;3.95;1.67;;;7.00;99.90;;;;;;5017343;28;20049;-78
2022/11/05 03:48:15;;;;;;;4.75;1.23;;;6.90;99.90;;;;;;5011361;28;20030;-77
2022/11/05 03:50:40;;;;;;;3.72;1.20;;;6.80;99.90;;;;;;4997640;28;20077;-77
2022/11/05 03:53:25;;;;;;;3.83;1.55;;;6.80;99.90;;;;;;4997664;28;20026;-77
2022/11/05 03:56:06;;;;;;;4.40;1.92;;;6.90;99.90;;;;;;4997727;28;20515;-78
2022/11/05 03:58:31;;;;;;;6.85;2.38;;;7.00;99.90;;;;;;4997633;28;20045;-77
2022/11/05 04:01:01;;;;;;;7.53;1.77;;;7.10;99.90;;;;;;4997634;28;20030;-78
2022/11/05 04:03:34;;;;;;;4.90;1.50;;;7.30;99.90;;;;;;4997491;28;20018;-77
2022/11/05 04:14:13;;;;;;;5.68;2.58;;;7.40;99.90;;;;;;5016871;28;20595;-77
2022/11/05 04:24:53;;;;;;;8.35;2.90;;;7.60;99.90;;;;;;5016806;28;20431;-78
2022/11/05 04:27:19;;;;;;;5.95;2.67;;;7.60;99.90;;;;;;5016580;28;20029;-78
2022/11/05 04:32:29;;;;;;;5.10;2.45;;;7.70;99.90;;;;;;4997026;28;20045;-77
2022/11/05 04:34:54;;;;;;;3.53;1.70;;;7.70;99.90;;;;;;4997079;28;20022;-78
2022/11/05 04:37:20;;;;;;;3.05;1.40;;;7.60;99.90;;;;;;4996970;28;20057;-78
2022/11/05 04:39:45;;;;;;;5.45;1.70;;;7.50;99.90;;;;;;4997089;28;20022;-78
2022/11/05 04:42:11;;;;;;;4.65;1.40;;;7.50;99.90;;;;;;4996857;28;20030;-78
2022/11/05 04:44:36;;;;;;;2.83;1.50;;;7.30;99.80;;;;;;4996998;28;20026;-78
2022/11/05 04:47:02;;;;;;;4.57;1.30;;;7.20;97.60;;;;;;4999843;28;20022;-78
2022/11/05 04:49:27;;;;;;;2.13;1.15;;;7.10;95.90;;;;;;5015831;28;20500;-77
2022/11/05 04:51:53;;;;;;;3.53;1.50;;;6.90;93.60;;;;;;5005369;28;20038;-78
2022/11/05 04:54:19;;;;;;;1.90;1.00;;;6.80;90.70;;;;;;4996525;28;20555;-77
2022/11/05 04:56:44;;;;;;;10.02;2.00;;;6.70;83.70;;;;;;4996426;28;20014;-77
2022/11/05 04:59:10;;;;;;;2.80;1.52;;;6.70;76.80;;;;;;4996414;28;20026;-78
2022/11/05 05:01:35;;;;;;;4.93;1.45;;;6.70;72.30;;;;;;4996514;28;20034;-78
2022/11/05 05:04:01;;;;;;;9.27;1.90;;;6.80;66.50;;;;;;4996631;28;20029;-77
2022/11/05 05:06:27;;;;;;;3.47;1.55;;;6.80;71.40;;;;;;4996191;28;20030;-77
2022/11/05 05:08:52;;;;;;;3.58;1.40;;;6.80;67.90;;;;;;4996261;28;20018;-78
2022/11/05 05:11:20;;;;;;;4.20;1.77;;;6.60;62.60;;;;;;4995736;28;20050;-77
2022/11/05 05:13:45;;;;;;;3.83;1.13;;;6.50;56.40;;;;;;4996085;28;20034;-78
2022/11/05 05:16:19;;;;;;;5.78;1.30;;;6.40;44.90;;;;;;4996385;28;20026;-78
2022/11/05 05:18:44;;;;;;;2.42;1.20;;;6.30;36.80;;;;;;4996473;28;20465;-77
2022/11/05 05:23:54;;;;;;;4.30;1.13;;;6.10;22.40;;;;;;4996142;28;20029;-77
2022/11/05 05:26:20;;;;;;;2.50;1.00;;;6.10;19.50;;;;;;4996005;28;20022;-77
2022/11/05 05:28:45;;;;;;;4.80;1.00;;;6.00;9.60;;;;;;4995953;28;20023;-78
2022/11/05 05:31:11;;;;;;;3.42;1.52;;;5.90;2.70;;;;;;5006775;28;20032;-78
2022/11/05 05:33:37;;;;;;;3.20;1.20;;;5.80;1.00;;;;;;4997264;28;20440;-78
2022/11/05 05:36:03;;;;;;;2.50;1.20;;;5.70;1.00;;;;;;4996318;28;20026;-78
2022/11/05 05:38:28;;;;;;;2.97;1.30;;;5.70;1.00;;;;;;5003982;28;20018;-78
2022/11/05 05:40:58;;;;;;;3.13;1.55;;;5.70;1.00;;;;;;5001573;28;20027;-78
2022/11/05 05:43:24;;;;;;;3.05;1.55;;;5.70;1.00;;;;;;5008305;28;20026;-78
2022/11/05 05:46:16;;;;;;;4.53;1.70;;;5.90;1.00;;;;;;5007125;28;20026;-78
2022/11/05 05:48:46;;;;;;;4.22;1.80;;;6.00;1.00;;;;;;4995987;28;20069;-78
2022/11/05 05:51:12;;;;;;;3.25;1.65;;;6.20;1.20;;;;;;4995949;28;20424;-77
2022/11/05 05:53:49;;;;;;;5.82;1.85;;;6.30;1.40;;;;;;4995160;28;20026;-77
2022/11/05 05:56:18;;;;;;;4.60;1.88;;;6.30;5.10;;;;;;5000354;28;20098;-78
2022/11/05 05:58:43;;;;;;;4.68;1.80;;;6.40;7.30;;;;;;5004145;28;20034;-78
2022/11/05 06:01:12;;;;;;;5.07;2.72;;;6.40;11.20;;;;;;5001935;28;20088;-78
2022/11/05 06:03:38;;;;;;;1.63;1.50;;;6.30;15.90;;;;;;5003329;28;20030;-78
2022/11/05 06:06:06;;;;;;;4.47;2.30;;;6.20;15.80;;;;;;5007557;28;20024;-78
2022/11/05 06:08:32;;;;;;;3.30;1.95;;;6.10;12.80;;;;;;5001580;28;20487;-78
2022/11/05 06:10:58;;;;;;;4.85;1.90;;;6.00;8.40;;;;;;5002291;28;20050;-78
2022/11/05 06:13:25;;;;;;;3.33;2.10;;;5.90;6.20;;;;;;5004243;28;20022;-78
2022/11/05 06:15:51;;;;;;;4.72;1.70;;;5.90;3.30;;;;;;5009051;28;20492;-78
2022/11/05 06:18:17;;;;;;;3.90;1.60;;;5.80;1.70;;;;;;4998722;28;20109;-78
2022/11/05 06:20:43;;;;;;;3.28;1.67;;;5.80;1.00;;;;;;5004681;28;20037;-78
2022/11/05 06:23:08;;;;;;;4.70;1.90;;;5.80;1.00;;;;;;5001471;28;20381;-78
2022/11/05 06:25:34;;;;;;;3.22;1.60;;;5.80;1.00;;;;;;5006646;28;20392;-78
2022/11/05 06:27:59;;;;;;;3.58;1.77;;;6.00;1.00;;;;;;5003806;28;20057;-78
2022/11/05 06:30:25;;;;;;;4.50;1.77;;;6.10;1.00;;;;;;5006418;28;20034;-78
2022/11/05 06:32:50;;;;;;;3.75;1.77;;;6.10;3.40;;;;;;5003500;28;20030;-78
2022/11/05 06:35:16;;;;;;;3.50;1.60;;;6.20;2.70;;;;;;5007115;28;20482;-78
2022/11/05 06:37:42;;;;;;;4.05;1.60;;;6.10;9.30;;;;;;5003674;28;20080;-78
2022/11/05 06:40:08;;;;;;;4.75;1.83;;;6.30;3.70;;;;;;4999964;28;20425;-78
2022/11/05 06:42:34;;;;;;;2.53;1.10;;;6.20;9.00;;;;;;5004225;28;20580;-78
2022/11/05 06:44:59;;;;;;;2.28;1.23;;;6.30;6.50;;;;;;5009328;28;20080;-78
2022/11/05 06:47:25;;;;;;;1.27;0.98;;;6.40;11.30;;;;;;4999363;28;20037;-78
2022/11/05 06:49:50;;;;;;;4.05;0.95;;;6.60;6.70;;;;;;5000699;28;20496;-78
2022/11/05 06:52:16;;;;;;;3.78;1.02;;;6.70;9.20;;;;;;5006913;28;20018;-78
2022/11/05 06:54:42;;;;;;;3.42;1.10;;;6.80;17.20;;;;;;5003837;28;20048;-78
2022/11/05 06:57:10;;;;;;;4.85;1.60;;;7.00;17.60;;;;;;5006231;28;20014;-78
2022/11/05 06:59:37;;;;;;;2.88;1.60;;;7.20;21.90;;;;;;5002170;28;20476;-78
2022/11/05 07:02:03;;;;;;;2.80;1.70;;;7.20;29.00;;;;;;4996928;28;20030;-78
2022/11/05 07:04:28;;;;;;;3.45;1.73;;;7.40;29.90;;;;;;4995049;28;20030;-78
2022/11/05 07:06:54;;;;;;;4.80;1.40;;;7.50;37.10;;;;;;5005396;28;20109;-78
2022/11/05 07:09:20;;;;;;;2.60;1.75;;;7.40;40.20;;;;;;5003921;28;20057;-78
2022/11/05 07:11:45;;;;;;;4.82;1.85;;;7.40;39.50;;;;;;4991601;28;20117;-78
2022/11/05 07:14:11;;;;;;;3.92;1.80;;;7.30;33.80;;;;;;4999328;28;20014;-78
2022/11/05 07:16:36;;;;;;;5.10;2.28;;;7.30;28.40;;;;;;4996224;28;20030;-78
2022/11/05 07:19:02;;;;;;;6.68;2.50;;;7.40;25.90;;;;;;5009861;28;20065;-78
2022/11/05 07:21:28;;;;;;;4.35;2.92;;;7.70;26.40;;;;;;5006066;28;20026;-78
2022/11/05 07:23:53;;;;;;;5.95;3.42;;;8.10;29.60;;;;;;5000081;28;20022;-78
2022/11/05 07:26:19;;;;;;;7.80;3.03;;;8.40;35.70;;;;;;4996398;28;20018;-78
2022/11/05 07:28:44;;;;;;;5.85;3.58;;;8.70;41.00;;;;;;5002217;28;20028;-78
2022/11/05 07:31:10;;;;;;;9.75;4.50;;;8.80;39.40;;;;;;4997715;28;20043;-78
2022/11/05 07:33:36;;;;;;;8.45;3.97;;;8.90;26.70;;;;;;5000590;28;20050;-78
2022/11/05 07:36:01;;;;;;;8.85;3.47;;;9.20;24.00;;;;;;5009721;28;20029;-78
2022/11/05 07:38:27;;;;;;;7.63;3.50;;;9.50;2.80;;;;;;5010089;28;20469;-78
2022/11/05 07:40:53;;;;;;;5.68;3.30;;;11.00;1.00;;;;;;4994321;28;20062;-78
2022/11/05 07:43:18;;;;;;;9.65;3.30;;;10.20;1.00;;;;;;5006693;28;20034;-78
2022/11/05 07:45:47;;;;;;;5.80;2.78;;;9.80;1.00;;;;;;4993985;28;20034;-78
2022/11/05 07:48:13;;;;;;;11.15;3.22;;;9.60;1.00;;;;;;4998139;28;20031;-78
2022/11/05 07:50:38;;;;;;;8.15;2.83;;;9.50;1.00;;;;;;4990878;28;20026;-78
2022/11/05 07:53:07;;;;;;;4.05;2.78;;;9.40;1.00;;;;;;5008035;28;20025;-78
2022/11/05 07:55:33;;;;;;;6.55;3.20;;;9.30;1.00;;;;;;5007493;28;20018;-78
2022/11/05 07:57:59;;;;;;;7.97;3.70;;;9.30;1.00;;;;;;5004345;28;20025;-78
2022/11/05 08:00:26;;;;;;;12.10;4.75;;;9.40;1.00;;;;;;5010477;28;20026;-78
2022/11/05 08:03:03;;;;;;;8.32;4.18;;;9.40;1.00;;;;;;5010473;28;20084;-78
2022/11/05 08:05:30;;;;;;;6.03;3.65;;;9.40;1.00;;;;;;5010396;28;20504;-78
2022/11/05 08:07:56;;;;;;;10.05;4.05;;;9.40;1.00;;;;;;5010374;28;20022;-78
2022/11/05 08:10:23;;;;;;;7.25;3.67;;;9.50;1.00;;;;;;5010182;28;20492;-78
2022/11/05 08:12:49;;;;;;;10.75;4.43;;;9.70;1.00;;;;;;5010352;28;20046;-78
2022/11/05 08:15:14;;;;;;;12.38;4.35;;;9.70;1.00;;;;;;5010574;28;20080;-78
2022/11/05 08:17:40;;;;;;;7.93;4.63;;;9.70;1.00;;;;;;5010459;28;20393;-78
2022/11/05 08:20:07;;;;;;;8.55;3.78;;;10.00;1.00;;;;;;5010309;28;20025;-78
2022/11/05 08:22:33;;;;;;;6.35;4.07;;;10.00;99.90;;;;;;5010190;28;20033;-78
2022/11/05 08:24:58;;;;;;;11.68;5.30;;;11.00;99.90;;;;;;5010008;28;20022;-78
2022/11/05 08:27:24;;;;;;;20.88;5.57;;;14.00;99.90;;;;;;5002704;28;20014;-78
2022/11/05 08:29:49;;;;;;;11.15;6.15;;;17.50;67.60;;;;;;4999116;28;20081;-78
2022/11/05 08:32:15;;;;;;;9.23;4.38;;;19.90;1.00;;;;;;5005749;28;20065;-78
2022/11/05 08:34:41;;;;;;;10.85;5.63;;;20.50;1.00;;;;;;5000867;28;20021;-78
2022/11/05 08:37:07;;;;;;;8.07;4.13;;;22.00;1.00;;;;;;5000136;28;20231;-79
2022/11/05 08:39:32;;;;;;;5.82;2.65;;;22.10;99.90;;;;;;4994904;28;20050;-79
2022/11/05 08:41:58;;;;;;;10.27;3.35;;;20.60;99.90;;;;;;5003173;28;20100;-79
2022/11/05 08:44:24;;;;;;;9.30;3.67;;;18.70;1.00;;;;;;4999230;28;20025;-79
2022/11/05 08:46:49;;;;;;;8.20;2.42;;;17.70;1.00;;;;;;5008705;28;20026;-80
2022/11/05 08:49:15;;;;;;;4.80;2.75;;;17.20;1.00;;;;;;5002487;28;20481;-79
2022/11/05 08:51:43;;;;;;;10.95;2.85;;;17.00;1.00;;;;;;5000442;28;20027;-78
2022/11/05 08:54:09;;;;;;;5.38;2.10;;;16.80;1.00;;;;;;4997509;28;20489;-78
2022/11/05 08:56:34;;;;;;;5.07;2.35;;;16.50;1.00;;;;;;5002398;28;20039;-78
2022/11/05 08:59:00;;;;;;;16.90;3.80;;;16.30;1.00;;;;;;4999057;28;20029;-79
2022/11/05 09:01:26;;;;;;;6.93;2.05;;;15.60;1.00;;;;;;4998013;28;20044;-79
2022/11/05 09:03:52;;;;;;;29.33;7.28;;;15.60;1.00;;;;;;5002628;28;20030;-79
2022/11/05 09:06:21;;;;;;;51.05;12.43;;;15.60;1.00;;;;;;5003688;28;20500;-79
2022/11/05 09:08:46;;;;;;;9.30;2.30;;;16.00;1.00;;;;;;5007080;28;20030;-79
2022/11/05 09:11:12;;;;;;;5.28;1.65;;;16.10;1.00;;;;;;5002141;28;20049;-79
2022/11/05 09:13:38;;;;;;;3.95;2.17;;;15.90;1.00;;;;;;5002861;28;20030;-78
2022/11/05 09:16:04;;;;;;;7.78;4.00;;;15.80;1.00;;;;;;5003891;28;20018;-78
2022/11/05 09:18:29;;;;;;;7.47;2.63;;;16.00;1.00;;;;;;4996320;28;20057;-78
2022/11/05 09:20:55;;;;;;;6.18;1.70;;;15.90;1.00;;;;;;5000204;28;20022;-78
2022/11/05 09:23:20;;;;;;;5.53;2.20;;;15.80;1.00;;;;;;5005178;28;20105;-78
2022/11/05 09:25:46;;;;;;;9.10;2.50;;;15.80;1.00;;;;;;5000596;28;20023;-79
2022/11/05 09:28:20;;;;;;;5.10;2.40;;;15.40;1.00;;;;;;4999278;28;20022;-79
2022/11/05 09:30:48;;;;;;;6.60;1.77;;;15.30;99.90;;;;;;4998443;28;20505;-79
2022/11/05 09:33:15;;;;;;;5.57;2.10;;;15.20;1.00;;;;;;5008506;28;20068;-79
2022/11/05 09:35:41;;;;;;;3.85;1.90;;;15.60;1.00;;;;;;4999348;28;20101;-79
2022/11/05 09:38:07;;;;;;;4.35;1.95;;;16.30;1.00;;;;;;5004107;28;20108;-79
2022/11/05 09:40:56;;;;;;;5.95;2.05;;;16.30;1.00;;;;;;5002390;28;20440;-79
2022/11/05 09:43:25;;;;;;;5.50;1.90;;;16.30;99.90;;;;;;5007276;28;20034;-79
2022/11/05 09:45:53;;;;;;;4.18;2.15;;;16.30;99.90;;;;;;5005970;28;20109;-79
2022/11/05 09:48:23;;;;;;;3.97;1.80;;;16.30;99.90;;;;;;5002792;28;20120;-79
2022/11/05 09:50:49;;;;;;;;;;;16.00;99.90;;;;;;5003780;28;20512;-79
2022/11/05 09:53:17;;;;;;;5.15;1.95;;;15.40;99.90;;;;;;5004397;28;20348;-79
2022/11/05 09:55:50;;;;;;;6.50;1.90;;;15.00;1.00;;;;;;5007708;28;20030;-79
2022/11/05 09:58:42;;;;;;;6.30;2.40;;;14.70;1.00;;;;;;5000945;28;20030;-79
2022/11/05 10:01:20;;;;;;;14.15;3.35;;;14.50;1.00;;;;;;5001699;28;20026;-79
2022/11/05 10:03:48;;;;;;;6.50;2.40;;;14.10;1.00;;;;;;4998670;28;20400;-79
2022/11/05 10:06:19;;;;;;;11.98;3.67;;;14.10;1.00;;;;;;5005020;28;20025;-79
2022/11/05 10:09:10;;;;;;;6.05;1.77;;;14.20;1.00;;;;;;4996953;28;20023;-79
2022/11/05 10:12:03;;;;;;;4.65;2.00;;;14.40;1.00;;;;;;4988416;28;20128;-79
2022/11/05 10:14:37;;;;;;;8.65;1.80;;;14.50;1.00;;;;;;5001076;28;20034;-79
2022/11/05 10:17:25;;;;;;;10.80;3.60;;;14.50;1.00;;;;;;5007736;28;20045;-79
2022/11/05 10:20:06;;;;;;;28.67;7.80;;;14.50;1.00;;;;;;5001728;28;20544;-79
2022/11/05 10:22:32;;;;;;;3.83;1.85;;;14.50;1.00;;;;;;5012369;28;20388;-79
2022/11/05 10:24:59;;;;;;;8.20;2.60;;;14.60;1.00;;;;;;5006975;28;20020;-79
2022/11/05 10:27:32;;;;;;;5.28;2.30;;;14.60;1.00;;;;;;5012625;28;20499;-79
2022/11/05 10:29:59;;;;;;;2.88;1.83;;;14.70;1.00;;;;;;5002696;28;20499;-79
2022/11/05 10:32:31;;;;;;;3.17;2.05;;;14.60;1.00;;;;;;4999755;28;20042;-79
2022/11/05 10:35:00;;;;;;;2.63;1.50;;;14.70;1.00;;;;;;4999636;28;20712;-79
2022/11/05 10:37:27;;;;;;;4.95;1.42;;;14.60;1.00;;;;;;4999932;28;20612;-79
2022/11/05 10:39:53;;;;;;;6.63;2.00;;;14.60;1.00;;;;;;5008106;28;20076;-79
2022/11/05 10:42:41;;;;;;;7.07;2.03;;;14.60;1.00;;;;;;5001971;28;20038;-79
2022/11/05 10:45:10;;;;;;;7.15;2.95;;;14.40;1.00;;;;;;5001518;28;20034;-79
2022/11/05 10:47:58;;;;;;;7.70;2.50;;;14.30;1.00;;;;;;5005117;28;20041;-79
2022/11/05 10:50:27;;;;;;;17.15;5.07;;;14.30;1.00;;;;;;4995494;28;20057;-78
2022/11/05 10:53:00;;;;;;;25.83;22.13;;;14.30;1.00;;;;;;5005935;28;20053;-88
2022/11/05 10:55:40;;;;;;;5.05;1.70;;;14.30;1.00;;;;;;5004441;28;20485;-88
2022/11/05 10:58:14;;;;;;;3.80;1.67;;;14.10;1.00;;;;;;5003756;28;20037;-87
2022/11/05 11:00:41;;;;;;;3.88;1.40;;;13.90;1.00;;;;;;5008197;28;20496;-88
2022/11/05 11:03:36;;;;;;;5.32;1.35;;;13.80;1.00;;;;;;5006061;28;20079;-88
2022/11/05 11:06:22;;;;;;;4.60;1.63;;;13.80;1.00;;;;;;5004548;28;20068;-87
2022/11/05 11:08:50;;;;;;;5.72;1.98;;;13.60;1.00;;;;;;5010871;28;20087;-88
2022/11/05 11:11:51;;;;;;;2.97;1.38;;;13.50;1.00;;;;;;5009405;28;20455;-87
2022/11/05 11:14:21;;;;;;;3.90;1.67;;;13.20;1.00;;;;;;4993538;28;20069;-87
2022/11/05 11:16:56;;;;;;;2.55;0.98;;;13.00;1.00;;;;;;5002201;28;20059;-87
2022/11/05 11:19:30;;;;;;;4.75;1.50;;;12.90;1.00;;;;;;4998754;28;20485;-87
2022/11/05 11:22:18;;;;;;;2.33;0.90;;;12.80;1.00;;;;;;4993355;28;20089;-88
2022/11/05 11:24:47;;;;;;;2.45;1.00;;;12.80;1.00;;;;;;5002272;28;20018;-87
2022/11/05 11:27:32;;;;;;;3.08;1.70;;;12.50;1.00;;;;;;5009432;28;20018;-87
2022/11/05 11:30:02;;;;;;;3.53;0.60;;;12.50;1.00;;;;;;5010806;28;20026;-87
2022/11/05 11:32:38;;;;;;;2.53;0.75;;;12.30;1.00;;;;;;5004015;28;20026;-87
2022/11/05 11:35:07;;;;;;;3.53;1.00;;;12.40;1.00;;;;;;5007046;28;20488;-87
2022/11/05 11:37:40;;;;;;;1.17;0.80;;;12.40;1.00;;;;;;5002424;28;20535;-88
2022/11/05 11:40:27;;;;;;;3.28;1.33;;;12.50;1.00;;;;;;4993493;28;20472;-87
2022/11/05 11:42:58;;;;;;;4.57;1.38;;;12.30;1.00;;;;;;5010683;28;20117;-85
2022/11/05 11:45:31;;;;;;;2.05;0.93;;;12.40;1.00;;;;;;5005143;28;20069;-85
2022/11/05 11:47:59;;;;;;;5.60;1.67;;;12.50;1.00;;;;;;4993558;28;20057;-87
2022/11/05 11:50:55;;;;;;;2.45;1.10;;;12.50;1.00;;;;;;4999524;28;20036;-87
2022/11/05 11:53:21;;;;;;;5.93;1.92;;;12.40;1.00;;;;;;4995238;28;20053;-87
2022/11/05 11:56:13;;;;;;;4.38;1.63;;;12.30;1.00;;;;;;4998020;28;20402;-87
2022/11/05 11:58:39;;;;;;;1.35;0.80;;;12.30;1.00;;;;;;5003854;28;20103;-87
2022/11/05 12:01:25;;;;;;;16.92;3.50;;;12.30;1.00;;;;;;5011821;28;20064;-87
2022/11/05 12:04:09;;;;;;;14.95;3.33;;;12.20;1.00;;;;;;5002149;28;20488;-87
2022/11/05 12:07:03;;;;;;;9.25;2.90;;;12.10;1.00;;;;;;5013136;28;20037;-87
2022/11/05 12:10:03;;;;;;;5.70;2.55;;;12.00;1.00;;;;;;5014551;28;20034;-87
2022/11/05 12:13:04;;;;;;;3.70;1.90;;;12.10;1.00;;;;;;4987005;28;20050;-87
2022/11/05 12:16:22;;;;;;;4.47;1.80;;;11.90;1.00;;;;;;4995015;28;20354;-87
2022/11/05 12:19:16;;;;;;;2.50;1.45;;;11.80;1.00;;;;;;5010065;28;20113;-87
2022/11/05 12:22:17;;;;;;;5.32;1.50;;;11.70;1.00;;;;;;5001559;28;20034;-88
2022/11/05 12:24:51;;;;;;;12.73;3.30;;;11.90;1.00;;;;;;5005701;28;20034;-87
2022/11/05 12:27:45;;;;;;;5.07;2.42;;;12.00;1.00;;;;;;5014196;28;20105;-87
2022/11/05 12:30:15;;;;;;;6.13;2.75;;;12.20;1.00;;;;;;5011032;28;20095;-88
2022/11/05 12:32:53;;;;;;;9.57;2.53;;;12.40;1.00;;;;;;5000213;28;20057;-87
2022/11/05 12:35:38;;;;;;;8.30;3.00;;;12.60;1.00;;;;;;4996455;28;20034;-87
2022/11/05 12:38:32;;;;;;;4.53;2.03;;;12.90;1.00;;;;;;5006323;28;20029;-88
2022/11/05 12:41:27;;;;;;;4.70;2.53;;;13.30;1.00;;;;;;5000726;28;20465;-86
2022/11/05 12:44:08;;;;;;;4.50;2.78;;;13.50;1.00;;;;;;4973145;28;20038;-87
2022/11/05 12:46:40;;;;;;;5.15;2.70;;;13.60;1.00;;;;;;5003926;28;20026;-87
2022/11/05 12:49:29;;;;;;;5.03;3.08;;;13.50;1.00;;;;;;5012696;28;20026;-87
2022/11/05 12:52:14;;;;;;;6.15;3.30;;;13.60;1.00;;;;;;5014290;28;20018;-87
2022/11/05 12:54:42;;;;;;;9.07;4.13;;;13.40;1.00;;;;;;5010868;28;20485;-87
2022/11/05 12:57:11;;;;;;;4.90;3.30;;;13.40;1.00;;;;;;5002882;28;20044;-87
2022/11/05 13:00:04;;;;;;;5.93;3.47;;;13.50;1.00;;;;;;5007313;28;20060;-87
2022/11/05 13:02:50;;;;;;;4.65;2.60;;;13.50;1.00;;;;;;5004062;28;20038;-87
2022/11/05 13:05:22;;;;;;;5.00;2.75;;;13.50;1.00;;;;;;4977238;28;20036;-87
2022/11/05 13:07:56;;;;;;;6.43;2.70;;;13.50;1.00;;;;;;5002953;28;20030;-87
2022/11/05 13:10:31;;;;;;;6.85;2.75;;;13.40;1.00;;;;;;5001904;28;20456;-87
2022/11/05 13:13:24;;;;;;;4.88;2.65;;;13.50;1.00;;;;;;4996845;28;20583;-87
2022/11/05 13:15:52;;;;;;;4.85;2.70;;;13.40;1.00;;;;;;5008184;28;20073;-87
2022/11/05 13:18:25;;;;;;;6.07;2.90;;;13.30;1.00;;;;;;5008316;28;20032;-86
2022/11/05 13:20:53;;;;;;;4.70;3.08;;;13.30;1.00;;;;;;5004251;28;20089;-87
2022/11/05 13:23:44;;;;;;;6.57;3.50;;;13.30;1.00;;;;;;5008066;28;20034;-87
2022/11/05 13:26:17;;;;;;;5.43;2.70;;;13.30;1.00;;;;;;5002971;28;20033;-86
2022/11/05 13:29:02;;;;;;;6.70;2.75;;;13.20;1.00;;;;;;5010081;28;20289;-86
2022/11/05 13:31:44;;;;;;;7.32;3.03;;;13.30;1.00;;;;;;5001071;28;20384;-85
2022/11/05 13:34:12;;;;;;;6.22;2.88;;;13.10;1.00;;;;;;4994961;28;20377;-85
2022/11/05 13:39:47;;;;;;;9.73;3.70;;;13.10;1.00;;;;;;5009537;28;20033;-85
2022/11/05 13:42:16;;;;;;;8.48;3.20;;;13.10;1.00;;;;;;5006229;28;20058;-84
2022/11/05 13:45:00;;;;;;;6.15;2.92;;;12.80;1.00;;;;;;5007294;28;20101;-84
2022/11/05 13:47:25;;;;;;;6.47;3.20;;;12.90;1.00;;;;;;4996916;28;20448;-84
2022/11/05 13:49:54;;;;;;;5.78;3.38;;;12.90;1.00;;;;;;5005495;28;20480;-84
2022/11/05 13:52:38;;;;;;;9.05;3.22;;;12.70;1.00;;;;;;5005194;28;20034;-83
2022/11/05 13:55:29;;;;;;;5.93;3.13;;;12.60;1.00;;;;;;5001411;28;20054;-84
2022/11/05 13:58:13;;;;;;;6.57;3.00;;;12.60;1.00;;;;;;5009928;28;20025;-84
2022/11/05 14:01:08;;;;;;;7.20;3.25;;;12.60;1.00;;;;;;5007328;28;20034;-84
2022/11/05 14:03:35;;;;;;;7.05;2.58;;;12.50;1.00;;;;;;5007516;28;20109;-84
2022/11/05 14:06:06;;;;;;;9.70;3.42;;;12.50;1.00;;;;;;5004949;28;20028;-84
2022/11/05 14:08:39;;;;;;;7.35;3.50;;;12.40;1.00;;;;;;5001108;28;20022;-84
2022/11/05 14:11:18;;;;;;;8.25;3.35;;;12.30;1.00;;;;;;5007692;28;20049;-84
2022/11/05 14:13:45;;;;;;;8.70;3.60;;;12.30;1.00;;;;;;5005923;28;20029;-84